createdAt,value
2019-05-15T00:02:39.416Z,987.43
2019-05-15T00:07:39.945Z,987.42
2019-05-15T00:12:40.232Z,987.35
2019-05-15T00:17:44.205Z,987.28
2019-05-15T00:22:44.286Z,987.28
2019-05-15T00:27:44.317Z,987.26
2019-05-15T00:32:44.424Z,987.2
2019-05-15T00:37:44.537Z,987.15
2019-05-15T00:42:44.534Z,987.03
2019-05-15T00:47:44.717Z,986.96
2019-05-15T00:52:44.734Z,986.91
2019-05-15T00:57:45.090Z,986.86
2019-05-15T01:02:45.114Z,986.75
2019-05-15T01:07:45.256Z,986.72
2019-05-15T01:12:53.607Z,986.72
2019-05-15T01:17:53.718Z,986.65
2019-05-15T01:22:53.766Z,986.6
2019-05-15T01:27:54.031Z,986.57
2019-05-15T01:32:54.066Z,986.49
2019-05-15T01:37:54.165Z,986.51
2019-05-15T01:42:55.154Z,986.45
2019-05-15T01:47:54.326Z,986.4
2019-05-15T01:52:54.431Z,986.32
2019-05-15T01:57:54.711Z,986.32
2019-05-15T02:02:54.432Z,986.26
2019-05-15T02:08:00.861Z,986.27
2019-05-15T02:13:00.895Z,986.31
2019-05-15T02:18:01.164Z,986.28
2019-05-15T02:23:01.286Z,986.26
2019-05-15T02:28:01.278Z,986.2
2019-05-15T02:33:01.401Z,986.21
2019-05-15T02:38:01.703Z,986.23
2019-05-15T02:43:01.472Z,986.22
2019-05-15T02:48:01.512Z,986.22
2019-05-15T02:53:01.762Z,986.23
2019-05-15T02:58:01.970Z,986.18
2019-05-15T03:03:10.127Z,986.24
2019-05-15T03:08:10.337Z,986.28
2019-05-15T03:13:10.696Z,986.22
2019-05-15T03:18:10.595Z,986.17
2019-05-15T03:23:10.629Z,986.16
2019-05-15T03:28:11.545Z,986.12
2019-05-15T03:33:33.792Z,986.13
2019-05-15T03:38:09.905Z,986.06
2019-05-15T03:43:09.730Z,986.08
2019-05-15T03:48:10.064Z,986.11
2019-05-15T03:53:11.230Z,986.08
2019-05-15T03:58:22.253Z,986.1
2019-05-15T04:03:20.864Z,986.14
2019-05-15T04:08:20.167Z,986.12
2019-05-15T04:13:20.375Z,986.17
2019-05-15T04:18:20.535Z,986.14
2019-05-15T04:23:19.627Z,986.11
2019-05-15T04:28:19.822Z,986.19
2019-05-15T04:33:20.520Z,986.11
2019-05-15T04:38:20.219Z,986.12
2019-05-15T04:43:20.053Z,986.09
2019-05-15T04:48:20.682Z,986.08
2019-05-15T04:53:23.122Z,986.16
2019-05-15T04:58:23.162Z,986.2
2019-05-15T05:03:23.413Z,986.21
2019-05-15T05:08:23.456Z,986.24
2019-05-15T05:13:23.494Z,986.24
2019-05-15T05:18:23.666Z,986.21
2019-05-15T05:23:23.646Z,986.2
2019-05-15T05:28:23.757Z,986.26
2019-05-15T05:33:23.974Z,986.36
2019-05-15T05:38:23.903Z,986.34
2019-05-15T05:43:24.023Z,986.31
2019-05-15T05:48:30.282Z,986.27
2019-05-15T05:53:32.256Z,986.19
2019-05-15T05:58:32.344Z,986.2
2019-05-15T06:03:32.531Z,986.22
2019-05-15T06:08:32.493Z,986.2
2019-05-15T06:13:32.703Z,986.19
2019-05-15T06:18:32.915Z,986.23
2019-05-15T06:23:42.863Z,986.06
2019-05-15T06:28:32.951Z,986.08
2019-05-15T06:33:33.162Z,986.06
2019-05-15T06:38:33.415Z,986.09
2019-05-15T06:43:39.670Z,986.03
2019-05-15T06:48:39.650Z,986.05
2019-05-15T06:53:39.654Z,986.0
2019-05-15T06:58:39.770Z,985.94
2019-05-15T07:03:40.126Z,985.97
2019-05-15T07:08:39.994Z,985.95
2019-05-15T07:13:39.955Z,985.9
2019-05-15T07:18:40.234Z,985.92
2019-05-15T07:23:40.921Z,985.87
2019-05-15T07:28:40.847Z,985.84
2019-05-15T07:33:44.439Z,985.79
2019-05-15T07:38:45.286Z,985.79
2019-05-15T07:43:45.324Z,985.78
2019-05-15T07:48:45.651Z,985.79
2019-05-15T07:53:49.299Z,985.72
2019-05-15T07:58:53.161Z,985.67
2019-05-15T08:04:28.665Z,985.67
2019-05-15T08:08:49.144Z,985.64
2019-05-15T08:13:48.885Z,985.53
2019-05-15T08:18:48.927Z,985.59
2019-05-15T08:23:48.941Z,985.52
2019-05-15T08:28:49.179Z,985.43
2019-05-15T08:33:52.993Z,985.41
2019-05-15T08:38:53.001Z,985.28
2019-05-15T08:43:53.190Z,985.3
2019-05-15T08:48:54.002Z,985.32
2019-05-15T08:53:54.230Z,985.33
2019-05-15T08:58:54.133Z,985.27
2019-05-15T09:03:54.317Z,985.14
2019-05-15T09:08:54.261Z,985.07
2019-05-15T09:13:55.021Z,985.11
2019-05-15T09:18:54.417Z,985.06
2019-05-15T09:23:54.457Z,984.92
2019-05-15T09:28:59.138Z,984.8
2019-05-15T09:33:59.254Z,984.84
2019-05-15T09:38:59.219Z,984.7
2019-05-15T09:43:59.007Z,984.66
2019-05-15T09:48:59.897Z,984.66
2019-05-15T09:54:00.260Z,984.66
2019-05-15T09:59:00.268Z,984.56
2019-05-15T10:04:00.306Z,984.57
2019-05-15T10:09:00.422Z,984.55
2019-05-15T10:14:00.442Z,984.55
2019-05-15T10:19:00.586Z,984.52
2019-05-15T10:24:09.963Z,984.5
2019-05-15T10:29:09.714Z,984.43
2019-05-15T10:34:09.706Z,984.35
2019-05-15T10:39:09.103Z,984.29
2019-05-15T10:44:09.783Z,984.2
2019-05-15T10:49:09.220Z,984.16
2019-05-15T10:54:09.103Z,984.18
2019-05-15T10:59:09.063Z,984.08
2019-05-15T11:04:09.871Z,983.97
2019-05-15T11:09:09.064Z,983.95
2019-05-15T11:14:09.771Z,983.86
2019-05-15T11:19:12.512Z,983.84
2019-05-15T11:24:12.534Z,983.87
2019-05-15T11:29:12.728Z,983.81
2019-05-15T11:34:13.701Z,983.67
2019-05-15T11:39:13.732Z,983.67
2019-05-15T11:44:13.867Z,983.7
2019-05-15T11:49:13.864Z,983.57
2019-05-15T11:54:13.984Z,983.58
2019-05-15T11:59:14.016Z,983.63
2019-05-15T12:04:34.341Z,983.45
2019-05-15T12:09:14.469Z,983.42
2019-05-15T12:14:20.821Z,983.39
2019-05-15T12:19:20.586Z,983.41
2019-05-15T12:24:20.627Z,983.35
2019-05-15T12:29:20.669Z,983.4
2019-05-15T12:34:21.053Z,983.38
2019-05-15T12:39:22.695Z,983.36
2019-05-15T13:04:22.173Z,983.21
2019-05-15T13:09:28.457Z,983.19
2019-05-15T13:14:29.106Z,983.07
2019-05-15T13:19:29.110Z,983.04
2019-05-15T13:24:29.062Z,983.0
2019-05-15T13:29:29.560Z,983.06
2019-05-15T13:34:31.412Z,982.96
2019-05-15T13:39:29.109Z,982.93
2019-05-15T13:44:29.963Z,982.91
2019-05-15T13:49:29.044Z,982.93
2019-05-15T13:54:29.289Z,982.9
2019-05-15T13:59:29.327Z,982.89
2019-05-15T14:04:39.292Z,982.85
2019-05-15T14:09:45.283Z,982.92
2019-05-15T14:14:40.018Z,982.81
2019-05-15T14:19:40.012Z,982.81
2019-05-15T14:24:40.228Z,982.8
2019-05-15T14:29:40.239Z,982.7
2019-05-15T14:34:40.435Z,982.72
2019-05-15T14:39:40.409Z,982.74
2019-05-15T14:44:40.966Z,982.71
2019-05-15T14:49:49.569Z,982.71
2019-05-15T14:54:40.809Z,982.7
2019-05-15T14:59:49.273Z,982.64
2019-05-15T15:04:49.150Z,982.63
2019-05-15T15:09:48.372Z,982.57
2019-05-15T15:14:49.181Z,982.6
2019-05-15T15:19:53.439Z,982.65
2019-05-15T15:24:49.222Z,982.55
2019-05-15T15:29:48.875Z,982.55
2019-05-15T15:34:48.529Z,982.53
2019-05-15T15:39:48.793Z,982.49
2019-05-15T15:44:49.439Z,982.48
2019-05-15T15:49:48.507Z,982.57
2019-05-15T15:54:54.152Z,982.57
2019-05-15T15:59:54.190Z,982.65
2019-05-15T16:04:54.230Z,982.61
2019-05-15T16:09:54.422Z,982.61
2019-05-15T16:14:58.395Z,982.64
2019-05-15T16:19:56.163Z,982.55
2019-05-15T16:25:02.907Z,982.55
2019-05-15T16:29:58.990Z,982.5
2019-05-15T16:34:59.656Z,982.51
2019-05-15T16:40:00.457Z,982.43
2019-05-15T16:44:59.053Z,982.49
2019-05-15T16:50:04.096Z,982.45
2019-05-15T16:55:04.210Z,982.52
2019-05-15T17:00:04.720Z,982.45
2019-05-15T17:05:04.284Z,982.49
2019-05-15T17:10:04.323Z,982.5
2019-05-15T17:15:04.575Z,982.47
2019-05-15T17:20:04.735Z,982.49
2019-05-15T17:25:04.850Z,982.5
2019-05-15T17:30:04.901Z,982.48
2019-05-15T17:35:05.023Z,982.51
2019-05-15T17:40:05.028Z,982.41
2019-05-15T17:45:11.525Z,982.4
2019-05-15T17:50:11.430Z,982.39
2019-05-15T17:55:11.571Z,982.43
2019-05-15T18:00:13.449Z,982.4
2019-05-15T18:05:11.708Z,982.44
2019-05-15T18:10:11.632Z,982.48
2019-05-15T18:15:12.019Z,982.54
2019-05-15T18:20:12.090Z,982.61
2019-05-15T18:25:12.129Z,982.62
2019-05-15T18:30:12.166Z,982.73
2019-05-15T18:35:12.283Z,982.77
2019-05-15T18:40:19.641Z,982.75
2019-05-15T18:45:18.905Z,982.8
2019-05-15T18:50:18.814Z,982.83
2019-05-15T18:55:20.183Z,982.75
2019-05-15T19:00:20.611Z,982.78
2019-05-15T19:05:20.732Z,982.84
2019-05-15T19:10:20.781Z,982.83
2019-05-15T19:15:21.157Z,982.83
2019-05-15T19:20:21.331Z,982.85
2019-05-15T19:25:21.346Z,982.89
2019-05-15T19:30:21.394Z,982.85
2019-05-15T19:35:28.646Z,982.9
2019-05-15T19:40:28.963Z,982.84
2019-05-15T19:45:28.846Z,982.88
2019-05-15T19:50:29.360Z,982.86
2019-05-15T19:55:28.003Z,982.88
2019-05-15T20:00:29.161Z,982.93
2019-05-15T20:05:29.661Z,982.97
2019-05-15T20:10:29.904Z,983.05
2019-05-15T20:15:29.293Z,983.05
2019-05-15T20:20:29.140Z,983.0
2019-05-15T20:25:28.936Z,982.97
2019-05-15T20:30:35.293Z,982.89
2019-05-15T20:35:35.319Z,982.91
2019-05-15T20:40:35.526Z,982.82
2019-05-15T20:45:35.506Z,982.81
2019-05-15T20:50:35.683Z,982.83
2019-05-15T20:55:38.301Z,982.79
2019-05-15T21:00:38.603Z,982.81
2019-05-15T21:05:38.123Z,982.82
2019-05-15T21:10:43.170Z,982.87
2019-05-15T21:15:36.107Z,982.85
2019-05-15T21:20:38.567Z,982.81
2019-05-15T21:25:42.550Z,982.75
2019-05-15T21:30:42.516Z,982.71
2019-05-15T21:35:42.778Z,982.71
2019-05-15T21:40:42.814Z,982.76
2019-05-15T21:45:42.853Z,982.76
2019-05-15T21:50:43.703Z,982.74
2019-05-15T21:55:43.133Z,982.67
2019-05-15T22:00:43.936Z,982.64
2019-05-15T22:05:43.979Z,982.56
2019-05-15T22:10:44.095Z,982.49
2019-05-15T22:15:44.217Z,982.49
2019-05-15T22:20:53.316Z,982.41
2019-05-15T22:25:52.763Z,982.41
2019-05-15T22:30:53.026Z,982.34
2019-05-15T22:35:54.415Z,982.24
2019-05-15T22:40:54.403Z,982.13
2019-05-15T22:45:54.484Z,982.02
2019-05-15T22:50:54.527Z,981.97
2019-05-15T22:55:54.585Z,981.85
2019-05-15T23:00:54.699Z,981.74
2019-05-15T23:05:54.738Z,981.68
2019-05-15T23:10:54.855Z,981.66
2019-05-15T23:16:01.166Z,981.62
2019-05-15T23:21:01.184Z,981.58
2019-05-15T23:26:01.529Z,981.53
2019-05-15T23:31:02.277Z,981.51
2019-05-15T23:36:02.257Z,981.4
2019-05-15T23:41:02.297Z,981.31
2019-05-15T23:46:02.720Z,981.2
2019-05-15T23:51:02.460Z,981.12
2019-05-15T23:56:02.581Z,981.1
